This is the latest recevied weather packets stored in our database for station/object VE3ZEB-1. If no packets are shown the sender has not sent any weather packets the latest 10 day(s).
| Time | Temp. | Humidity | Pressure | Rain* | Wind** | Luminosity | Snow |
|---|---|---|---|---|---|---|---|
| 1777749021 | 10.56° C | 42% | 679.5 hPa | 0 mm | - | 307 W/m² | - |
| 1777747822 | 11.11° C | 43% | 679.5 hPa | 0 mm | - | 402 W/m² | - |
| 1777746622 | 11.11° C | 43% | 679.5 hPa | 0 mm | - | 478 W/m² | - |
| 1777744243 | 11.11° C | 43% | 679.5 hPa | 0 mm | - | 458 W/m² | - |
| 1777734625 | 11.67° C | 48% | 679.5 hPa | 0 mm | - | 660 W/m² | - |
| 1777731626 | 8.89° C | 53% | 679.4 hPa | 0 mm | - | 354 W/m² | - |
| 1777730426 | 8.33° C | 55% | 679.4 hPa | 0 mm | - | 222 W/m² | - |
| 1777728626 | 6.67° C | 59% | 679.3 hPa | 0 mm | - | 250 W/m² | - |
| 1777728046 | 6.67° C | 59% | 679.3 hPa | 0 mm | - | 184 W/m² | - |
| 1777726227 | 5.56° C | 65% | 679.3 hPa | 0 mm | - | 132 W/m² | - |
| 1777710650 | 1.67° C | 74% | 679.1 hPa | 0 mm | - | 0 W/m² | - |
| 1777704032 | 2.22° C | 75% | 679.2 hPa | 0 mm | - | 0 W/m² | - |
| 1777693239 | 1.67° C | 65% | 679.2 hPa | 0 mm | - | 0 W/m² | - |
| 1777691420 | 2.22° C | 63% | 679.2 hPa | 0 mm | - | 0 W/m² | - |
| 1777687820 | 2.78° C | 58% | 679.2 hPa | 0 mm | - | 0 W/m² | - |
| 1777681222 | 5.56° C | 47% | 679.3 hPa | 0 mm | - | 6 W/m² | - |
| 1777680622 | 5.56° C | 45% | 679.3 hPa | 0 mm | - | 11 W/m² | - |
| 1777680022 | 6.11° C | 47% | 679.4 hPa | 0 mm | - | 20 W/m² | - |
| 1777677023 | 7.78° C | 47% | 679.4 hPa | 0 mm | - | 46 W/m² | - |
| 1777671018 | 10.56° C | 44% | 679.5 hPa | 0 mm | - | 200 W/m² | - |
| 1777668618 | 11.11° C | 45% | 679.5 hPa | 0 mm | - | 306 W/m² | - |
| 1777664440 | 12.22° C | 42% | 679.6 hPa | 0 mm | - | 161 W/m² | - |
| 1777663820 | 12.22° C | 43% | 679.6 hPa | 0 mm | - | 361 W/m² | - |
| 1777661460 | 12.22° C | 42% | 679.6 hPa | 0 mm | - | 574 W/m² | - |
| 1777659621 | 12.78° C | 45% | 679.6 hPa | 0 mm | - | 755 W/m² | - |
* Rain latest hour (hover to see other rain measurements)
** Current wind speed in m/s (hover to see current wind gust speed)